sensor_id;sensor_type;location;lat;lon;timestamp;P1;durP1;ratioP1;P2;durP2;ratioP2
15271;SDS011;7737;51.578;7.268;2023-09-07T00:01:52;8.63;;;7.78;;
15271;SDS011;7737;51.578;7.268;2023-09-07T00:04:18;11.10;;;8.40;;
15271;SDS011;7737;51.578;7.268;2023-09-07T00:06:46;9.02;;;7.72;;
15271;SDS011;7737;51.578;7.268;2023-09-07T00:09:15;9.63;;;8.55;;
15271;SDS011;7737;51.578;7.268;2023-09-07T00:11:43;9.73;;;8.70;;
15271;SDS011;7737;51.578;7.268;2023-09-07T00:14:10;9.38;;;8.48;;
15271;SDS011;7737;51.578;7.268;2023-09-07T00:16:36;11.05;;;9.93;;
15271;SDS011;7737;51.578;7.268;2023-09-07T00:19:03;11.73;;;9.80;;
15271;SDS011;7737;51.578;7.268;2023-09-07T00:21:30;9.93;;;8.82;;
15271;SDS011;7737;51.578;7.268;2023-09-07T00:23:56;11.75;;;9.43;;
15271;SDS011;7737;51.578;7.268;2023-09-07T00:26:24;10.48;;;9.48;;
15271;SDS011;7737;51.578;7.268;2023-09-07T00:28:51;11.13;;;9.90;;
15271;SDS011;7737;51.578;7.268;2023-09-07T00:31:17;10.88;;;9.77;;
15271;SDS011;7737;51.578;7.268;2023-09-07T00:33:44;11.73;;;10.52;;
15271;SDS011;7737;51.578;7.268;2023-09-07T00:36:10;11.93;;;10.82;;
15271;SDS011;7737;51.578;7.268;2023-09-07T00:38:37;13.27;;;12.07;;
15271;SDS011;7737;51.578;7.268;2023-09-07T00:41:03;14.52;;;12.73;;
15271;SDS011;7737;51.578;7.268;2023-09-07T00:43:31;12.63;;;11.30;;
15271;SDS011;7737;51.578;7.268;2023-09-07T00:45:58;14.00;;;12.73;;
15271;SDS011;7737;51.578;7.268;2023-09-07T00:48:24;13.98;;;11.82;;
15271;SDS011;7737;51.578;7.268;2023-09-07T00:50:51;14.70;;;13.30;;
15271;SDS011;7737;51.578;7.268;2023-09-07T00:53:17;15.40;;;13.27;;
15271;SDS011;7737;51.578;7.268;2023-09-07T00:55:44;14.63;;;13.02;;
15271;SDS011;7737;51.578;7.268;2023-09-07T00:58:11;15.50;;;14.00;;
15271;SDS011;7737;51.578;7.268;2023-09-07T01:00:39;14.55;;;12.90;;
15271;SDS011;7737;51.578;7.268;2023-09-07T01:03:07;14.00;;;12.38;;
15271;SDS011;7737;51.578;7.268;2023-09-07T01:05:37;14.93;;;13.45;;
15271;SDS011;7737;51.578;7.268;2023-09-07T01:08:10;15.95;;;14.23;;
15271;SDS011;7737;51.578;7.268;2023-09-07T01:10:41;16.73;;;14.27;;
15271;SDS011;7737;51.578;7.268;2023-09-07T01:13:07;15.32;;;13.73;;
15271;SDS011;7737;51.578;7.268;2023-09-07T01:15:34;14.35;;;12.88;;
15271;SDS011;7737;51.578;7.268;2023-09-07T01:18:02;15.50;;;13.98;;
15271;SDS011;7737;51.578;7.268;2023-09-07T01:20:29;18.40;;;14.48;;
15271;SDS011;7737;51.578;7.268;2023-09-07T01:22:59;16.05;;;13.88;;
15271;SDS011;7737;51.578;7.268;2023-09-07T01:25:26;15.60;;;14.00;;
15271;SDS011;7737;51.578;7.268;2023-09-07T01:27:53;16.42;;;14.80;;
15271;SDS011;7737;51.578;7.268;2023-09-07T01:30:20;16.42;;;14.73;;
15271;SDS011;7737;51.578;7.268;2023-09-07T01:32:48;15.68;;;13.90;;
15271;SDS011;7737;51.578;7.268;2023-09-07T01:35:15;15.55;;;14.05;;
15271;SDS011;7737;51.578;7.268;2023-09-07T01:37:43;16.27;;;14.55;;
15271;SDS011;7737;51.578;7.268;2023-09-07T01:40:11;14.68;;;13.32;;
15271;SDS011;7737;51.578;7.268;2023-09-07T01:42:37;16.92;;;15.00;;
15271;SDS011;7737;51.578;7.268;2023-09-07T01:45:04;15.27;;;13.77;;
15271;SDS011;7737;51.578;7.268;2023-09-07T01:47:31;15.57;;;13.90;;
15271;SDS011;7737;51.578;7.268;2023-09-07T01:49:58;15.23;;;13.68;;
15271;SDS011;7737;51.578;7.268;2023-09-07T01:52:24;15.63;;;14.10;;
15271;SDS011;7737;51.578;7.268;2023-09-07T01:54:51;17.55;;;13.50;;
15271;SDS011;7737;51.578;7.268;2023-09-07T01:57:19;15.57;;;13.95;;
15271;SDS011;7737;51.578;7.268;2023-09-07T01:59:45;15.98;;;14.30;;
15271;SDS011;7737;51.578;7.268;2023-09-07T02:02:13;15.93;;;14.40;;
15271;SDS011;7737;51.578;7.268;2023-09-07T02:04:40;16.13;;;14.43;;
15271;SDS011;7737;51.578;7.268;2023-09-07T02:07:10;14.57;;;13.18;;
15271;SDS011;7737;51.578;7.268;2023-09-07T02:09:37;15.00;;;13.60;;
15271;SDS011;7737;51.578;7.268;2023-09-07T02:12:04;15.73;;;14.18;;
15271;SDS011;7737;51.578;7.268;2023-09-07T02:14:32;15.45;;;13.88;;
15271;SDS011;7737;51.578;7.268;2023-09-07T02:16:59;15.88;;;14.27;;
15271;SDS011;7737;51.578;7.268;2023-09-07T02:19:25;16.30;;;13.88;;
15271;SDS011;7737;51.578;7.268;2023-09-07T02:21:52;15.90;;;14.27;;
15271;SDS011;7737;51.578;7.268;2023-09-07T02:24:19;15.60;;;14.00;;
15271;SDS011;7737;51.578;7.268;2023-09-07T02:26:45;15.38;;;13.80;;
15271;SDS011;7737;51.578;7.268;2023-09-07T02:29:12;18.83;;;16.33;;
15271;SDS011;7737;51.578;7.268;2023-09-07T02:31:40;17.92;;;16.02;;
15271;SDS011;7737;51.578;7.268;2023-09-07T02:34:07;17.90;;;16.00;;
15271;SDS011;7737;51.578;7.268;2023-09-07T02:36:33;16.67;;;14.88;;
15271;SDS011;7737;51.578;7.268;2023-09-07T02:39:00;18.98;;;16.67;;
15271;SDS011;7737;51.578;7.268;2023-09-07T02:41:28;18.35;;;16.40;;
15271;SDS011;7737;51.578;7.268;2023-09-07T02:43:55;19.70;;;17.67;;
15271;SDS011;7737;51.578;7.268;2023-09-07T02:46:21;18.95;;;16.90;;
15271;SDS011;7737;51.578;7.268;2023-09-07T02:48:49;18.70;;;16.77;;
15271;SDS011;7737;51.578;7.268;2023-09-07T02:51:16;18.58;;;16.70;;
15271;SDS011;7737;51.578;7.268;2023-09-07T02:53:43;18.88;;;16.98;;
15271;SDS011;7737;51.578;7.268;2023-09-07T02:56:10;18.50;;;16.45;;
15271;SDS011;7737;51.578;7.268;2023-09-07T02:58:36;18.23;;;16.40;;
15271;SDS011;7737;51.578;7.268;2023-09-07T03:01:05;17.33;;;15.55;;
15271;SDS011;7737;51.578;7.268;2023-09-07T03:03:33;17.55;;;15.23;;
15271;SDS011;7737;51.578;7.268;2023-09-07T03:06:08;18.52;;;15.93;;
15271;SDS011;7737;51.578;7.268;2023-09-07T03:08:35;17.38;;;15.68;;
15271;SDS011;7737;51.578;7.268;2023-09-07T03:11:02;16.38;;;14.70;;
15271;SDS011;7737;51.578;7.268;2023-09-07T03:13:29;17.65;;;14.98;;
15271;SDS011;7737;51.578;7.268;2023-09-07T03:15:56;17.33;;;15.52;;
15271;SDS011;7737;51.578;7.268;2023-09-07T03:18:23;17.08;;;15.38;;
15271;SDS011;7737;51.578;7.268;2023-09-07T03:20:49;16.70;;;15.00;;
15271;SDS011;7737;51.578;7.268;2023-09-07T03:23:17;15.82;;;14.23;;
15271;SDS011;7737;51.578;7.268;2023-09-07T03:25:44;17.02;;;14.25;;
15271;SDS011;7737;51.578;7.268;2023-09-07T03:28:10;17.48;;;15.05;;
15271;SDS011;7737;51.578;7.268;2023-09-07T03:30:37;16.65;;;13.48;;
15271;SDS011;7737;51.578;7.268;2023-09-07T03:33:04;16.17;;;13.52;;
15271;SDS011;7737;51.578;7.268;2023-09-07T03:35:31;15.32;;;13.82;;
15271;SDS011;7737;51.578;7.268;2023-09-07T03:37:58;15.20;;;13.57;;
15271;SDS011;7737;51.578;7.268;2023-09-07T03:40:26;15.45;;;13.95;;
15271;SDS011;7737;51.578;7.268;2023-09-07T03:42:52;14.63;;;13.13;;
15271;SDS011;7737;51.578;7.268;2023-09-07T03:45:19;13.18;;;11.70;;
15271;SDS011;7737;51.578;7.268;2023-09-07T03:47:45;14.65;;;13.25;;
15271;SDS011;7737;51.578;7.268;2023-09-07T03:50:12;16.40;;;13.02;;
15271;SDS011;7737;51.578;7.268;2023-09-07T03:52:38;15.07;;;13.45;;
15271;SDS011;7737;51.578;7.268;2023-09-07T03:55:05;14.10;;;12.63;;
15271;SDS011;7737;51.578;7.268;2023-09-07T03:57:34;14.68;;;13.30;;
15271;SDS011;7737;51.578;7.268;2023-09-07T04:00:01;15.52;;;13.85;;
15271;SDS011;7737;51.578;7.268;2023-09-07T04:02:33;15.20;;;13.70;;
15271;SDS011;7737;51.578;7.268;2023-09-07T04:04:59;17.08;;;15.27;;
15271;SDS011;7737;51.578;7.268;2023-09-07T04:07:26;16.75;;;15.05;;
15271;SDS011;7737;51.578;7.268;2023-09-07T04:09:53;17.80;;;15.07;;
15271;SDS011;7737;51.578;7.268;2023-09-07T04:12:20;15.07;;;13.57;;
15271;SDS011;7737;51.578;7.268;2023-09-07T04:14:48;17.05;;;14.10;;
15271;SDS011;7737;51.578;7.268;2023-09-07T04:17:15;16.23;;;14.23;;
15271;SDS011;7737;51.578;7.268;2023-09-07T04:19:42;17.00;;;12.82;;
15271;SDS011;7737;51.578;7.268;2023-09-07T04:22:10;14.48;;;12.98;;
15271;SDS011;7737;51.578;7.268;2023-09-07T04:24:36;13.68;;;12.30;;
15271;SDS011;7737;51.578;7.268;2023-09-07T04:27:03;14.63;;;12.98;;
15271;SDS011;7737;51.578;7.268;2023-09-07T04:29:30;13.48;;;12.25;;
15271;SDS011;7737;51.578;7.268;2023-09-07T04:31:58;13.73;;;11.48;;
15271;SDS011;7737;51.578;7.268;2023-09-07T04:34:25;12.63;;;11.32;;
15271;SDS011;7737;51.578;7.268;2023-09-07T04:36:51;12.98;;;11.32;;
15271;SDS011;7737;51.578;7.268;2023-09-07T04:39:18;13.65;;;11.45;;
15271;SDS011;7737;51.578;7.268;2023-09-07T04:41:45;12.18;;;10.93;;
15271;SDS011;7737;51.578;7.268;2023-09-07T04:44:11;13.55;;;11.35;;
15271;SDS011;7737;51.578;7.268;2023-09-07T04:46:38;16.73;;;11.00;;
15271;SDS011;7737;51.578;7.268;2023-09-07T04:49:06;12.05;;;10.25;;
15271;SDS011;7737;51.578;7.268;2023-09-07T04:51:33;12.55;;;11.32;;
15271;SDS011;7737;51.578;7.268;2023-09-07T04:53:59;12.60;;;11.30;;
15271;SDS011;7737;51.578;7.268;2023-09-07T04:56:26;12.27;;;11.02;;
15271;SDS011;7737;51.578;7.268;2023-09-07T04:58:54;13.40;;;10.82;;
15271;SDS011;7737;51.578;7.268;2023-09-07T05:01:20;12.60;;;10.75;;
15271;SDS011;7737;51.578;7.268;2023-09-07T05:03:47;16.00;;;11.60;;
15271;SDS011;7737;51.578;7.268;2023-09-07T05:06:17;15.02;;;11.52;;
15271;SDS011;7737;51.578;7.268;2023-09-07T05:08:44;13.57;;;11.98;;
15271;SDS011;7737;51.578;7.268;2023-09-07T05:11:10;11.73;;;10.73;;
15271;SDS011;7737;51.578;7.268;2023-09-07T05:13:37;12.52;;;10.80;;
15271;SDS011;7737;51.578;7.268;2023-09-07T05:16:03;13.50;;;11.20;;
15271;SDS011;7737;51.578;7.268;2023-09-07T05:18:30;14.95;;;10.80;;
15271;SDS011;7737;51.578;7.268;2023-09-07T05:20:56;13.38;;;11.32;;
15271;SDS011;7737;51.578;7.268;2023-09-07T05:23:25;11.43;;;10.15;;
15271;SDS011;7737;51.578;7.268;2023-09-07T05:25:53;12.93;;;11.60;;
15271;SDS011;7737;51.578;7.268;2023-09-07T05:28:21;18.92;;;12.27;;
15271;SDS011;7737;51.578;7.268;2023-09-07T05:30:48;14.40;;;11.38;;
15271;SDS011;7737;51.578;7.268;2023-09-07T05:33:16;14.20;;;11.55;;
15271;SDS011;7737;51.578;7.268;2023-09-07T05:35:43;12.65;;;11.13;;
15271;SDS011;7737;51.578;7.268;2023-09-07T05:38:11;14.27;;;11.45;;
15271;SDS011;7737;51.578;7.268;2023-09-07T05:40:39;13.55;;;11.63;;
15271;SDS011;7737;51.578;7.268;2023-09-07T05:43:06;14.80;;;12.02;;
15271;SDS011;7737;51.578;7.268;2023-09-07T05:45:34;12.85;;;11.27;;
15271;SDS011;7737;51.578;7.268;2023-09-07T05:48:02;12.38;;;11.07;;
15271;SDS011;7737;51.578;7.268;2023-09-07T05:50:29;16.63;;;12.45;;
15271;SDS011;7737;51.578;7.268;2023-09-07T05:52:56;14.23;;;12.25;;
15271;SDS011;7737;51.578;7.268;2023-09-07T05:55:22;14.60;;;11.85;;
15271;SDS011;7737;51.578;7.268;2023-09-07T05:57:53;12.32;;;11.13;;
15271;SDS011;7737;51.578;7.268;2023-09-07T06:00:20;12.70;;;11.38;;
15271;SDS011;7737;51.578;7.268;2023-09-07T06:02:46;13.88;;;11.45;;
15271;SDS011;7737;51.578;7.268;2023-09-07T06:05:13;17.60;;;12.18;;
15271;SDS011;7737;51.578;7.268;2023-09-07T06:07:40;14.00;;;12.07;;
15271;SDS011;7737;51.578;7.268;2023-09-07T06:10:06;14.63;;;12.95;;
15271;SDS011;7737;51.578;7.268;2023-09-07T06:12:33;16.88;;;13.50;;
15271;SDS011;7737;51.578;7.268;2023-09-07T06:15:02;14.48;;;12.38;;
15271;SDS011;7737;51.578;7.268;2023-09-07T06:17:29;15.20;;;13.60;;
15271;SDS011;7737;51.578;7.268;2023-09-07T06:19:56;13.98;;;12.25;;
15271;SDS011;7737;51.578;7.268;2023-09-07T06:22:22;14.70;;;12.98;;
15271;SDS011;7737;51.578;7.268;2023-09-07T06:24:49;17.50;;;13.10;;
15271;SDS011;7737;51.578;7.268;2023-09-07T06:27:16;13.85;;;12.38;;
15271;SDS011;7737;51.578;7.268;2023-09-07T06:29:42;16.95;;;13.52;;
15271;SDS011;7737;51.578;7.268;2023-09-07T06:32:10;16.65;;;14.02;;
15271;SDS011;7737;51.578;7.268;2023-09-07T06:34:37;14.38;;;12.52;;
15271;SDS011;7737;51.578;7.268;2023-09-07T06:37:04;13.73;;;11.38;;
15271;SDS011;7737;51.578;7.268;2023-09-07T06:39:30;13.18;;;10.48;;
15271;SDS011;7737;51.578;7.268;2023-09-07T06:41:57;11.77;;;9.63;;
15271;SDS011;7737;51.578;7.268;2023-09-07T06:44:24;11.80;;;10.32;;
15271;SDS011;7737;51.578;7.268;2023-09-07T06:46:50;11.50;;;10.35;;
15271;SDS011;7737;51.578;7.268;2023-09-07T06:49:18;11.18;;;9.98;;
15271;SDS011;7737;51.578;7.268;2023-09-07T06:51:45;12.77;;;9.30;;
15271;SDS011;7737;51.578;7.268;2023-09-07T06:54:12;14.57;;;10.30;;
15271;SDS011;7737;51.578;7.268;2023-09-07T06:56:38;11.18;;;10.02;;
15271;SDS011;7737;51.578;7.268;2023-09-07T06:59:05;9.80;;;8.80;;
15271;SDS011;7737;51.578;7.268;2023-09-07T07:01:32;11.15;;;8.30;;
15271;SDS011;7737;51.578;7.268;2023-09-07T07:03:58;8.52;;;7.72;;
15271;SDS011;7737;51.578;7.268;2023-09-07T07:06:26;9.38;;;8.35;;
15271;SDS011;7737;51.578;7.268;2023-09-07T07:08:53;9.32;;;7.60;;
15271;SDS011;7737;51.578;7.268;2023-09-07T07:11:19;13.35;;;7.40;;
15271;SDS011;7737;51.578;7.268;2023-09-07T07:13:46;7.88;;;7.10;;
15271;SDS011;7737;51.578;7.268;2023-09-07T07:16:12;8.80;;;6.88;;
15271;SDS011;7737;51.578;7.268;2023-09-07T07:18:39;9.98;;;6.93;;
15271;SDS011;7737;51.578;7.268;2023-09-07T07:21:06;8.75;;;6.50;;
15271;SDS011;7737;51.578;7.268;2023-09-07T07:23:35;8.02;;;6.30;;
15271;SDS011;7737;51.578;7.268;2023-09-07T07:26:02;10.27;;;5.75;;
15271;SDS011;7737;51.578;7.268;2023-09-07T07:28:28;12.10;;;5.85;;
15271;SDS011;7737;51.578;7.268;2023-09-07T07:30:55;11.68;;;6.05;;
15271;SDS011;7737;51.578;7.268;2023-09-07T07:33:22;6.70;;;6.00;;
15271;SDS011;7737;51.578;7.268;2023-09-07T07:35:48;6.18;;;5.18;;
15271;SDS011;7737;51.578;7.268;2023-09-07T07:38:15;7.57;;;5.10;;
15271;SDS011;7737;51.578;7.268;2023-09-07T07:40:43;8.30;;;5.35;;
15271;SDS011;7737;51.578;7.268;2023-09-07T07:43:11;7.47;;;5.28;;
15271;SDS011;7737;51.578;7.268;2023-09-07T07:45:38;7.45;;;4.80;;
15271;SDS011;7737;51.578;7.268;2023-09-07T07:48:05;7.80;;;5.05;;
15271;SDS011;7737;51.578;7.268;2023-09-07T07:50:36;5.95;;;4.65;;
15271;SDS011;7737;51.578;7.268;2023-09-07T07:53:04;6.47;;;4.70;;
15271;SDS011;7737;51.578;7.268;2023-09-07T07:55:33;7.65;;;4.57;;
15271;SDS011;7737;51.578;7.268;2023-09-07T07:58:04;6.43;;;4.63;;
15271;SDS011;7737;51.578;7.268;2023-09-07T08:00:32;6.78;;;4.40;;
15271;SDS011;7737;51.578;7.268;2023-09-07T08:02:59;7.88;;;5.10;;
15271;SDS011;7737;51.578;7.268;2023-09-07T08:05:27;11.82;;;4.32;;
15271;SDS011;7737;51.578;7.268;2023-09-07T08:07:53;7.47;;;4.63;;
15271;SDS011;7737;51.578;7.268;2023-09-07T08:10:20;11.55;;;4.22;;
15271;SDS011;7737;51.578;7.268;2023-09-07T08:12:47;8.38;;;4.75;;
15271;SDS011;7737;51.578;7.268;2023-09-07T08:15:15;6.60;;;4.90;;
15271;SDS011;7737;51.578;7.268;2023-09-07T08:17:45;12.60;;;5.03;;
15271;SDS011;7737;51.578;7.268;2023-09-07T08:20:12;9.23;;;5.05;;
15271;SDS011;7737;51.578;7.268;2023-09-07T08:22:39;7.90;;;4.70;;
15271;SDS011;7737;51.578;7.268;2023-09-07T08:25:07;8.52;;;4.32;;
15271;SDS011;7737;51.578;7.268;2023-09-07T08:27:34;10.10;;;4.82;;
15271;SDS011;7737;51.578;7.268;2023-09-07T08:30:01;6.97;;;4.15;;
15271;SDS011;7737;51.578;7.268;2023-09-07T08:32:30;7.38;;;4.43;;
15271;SDS011;7737;51.578;7.268;2023-09-07T08:34:56;6.63;;;4.70;;
15271;SDS011;7737;51.578;7.268;2023-09-07T08:37:25;6.82;;;4.60;;
15271;SDS011;7737;51.578;7.268;2023-09-07T08:39:53;7.50;;;4.00;;
15271;SDS011;7737;51.578;7.268;2023-09-07T08:42:20;6.95;;;3.97;;
15271;SDS011;7737;51.578;7.268;2023-09-07T08:44:47;26.23;;;6.45;;
15271;SDS011;7737;51.578;7.268;2023-09-07T08:47:17;8.20;;;4.28;;
15271;SDS011;7737;51.578;7.268;2023-09-07T08:49:46;7.65;;;4.30;;
15271;SDS011;7737;51.578;7.268;2023-09-07T08:52:13;7.10;;;4.18;;
15271;SDS011;7737;51.578;7.268;2023-09-07T08:54:41;6.20;;;4.32;;
15271;SDS011;7737;51.578;7.268;2023-09-07T08:57:09;12.00;;;5.00;;
15271;SDS011;7737;51.578;7.268;2023-09-07T08:59:37;7.82;;;4.28;;
15271;SDS011;7737;51.578;7.268;2023-09-07T09:02:06;7.97;;;4.50;;
15271;SDS011;7737;51.578;7.268;2023-09-07T09:04:35;8.70;;;4.38;;
15271;SDS011;7737;51.578;7.268;2023-09-07T09:07:05;8.98;;;4.45;;
15271;SDS011;7737;51.578;7.268;2023-09-07T09:09:32;7.97;;;4.60;;
15271;SDS011;7737;51.578;7.268;2023-09-07T09:12:06;6.97;;;4.13;;
15271;SDS011;7737;51.578;7.268;2023-09-07T09:14:32;7.43;;;4.10;;
15271;SDS011;7737;51.578;7.268;2023-09-07T09:16:59;5.07;;;4.22;;
15271;SDS011;7737;51.578;7.268;2023-09-07T09:19:32;8.98;;;4.05;;
15271;SDS011;7737;51.578;7.268;2023-09-07T09:21:59;5.07;;;4.07;;
15271;SDS011;7737;51.578;7.268;2023-09-07T09:24:27;6.95;;;3.90;;
15271;SDS011;7737;51.578;7.268;2023-09-07T09:26:57;7.68;;;3.90;;
15271;SDS011;7737;51.578;7.268;2023-09-07T09:29:24;5.97;;;3.83;;
15271;SDS011;7737;51.578;7.268;2023-09-07T09:31:52;8.32;;;4.10;;
15271;SDS011;7737;51.578;7.268;2023-09-07T09:34:19;6.47;;;4.45;;
15271;SDS011;7737;51.578;7.268;2023-09-07T09:36:47;7.50;;;4.20;;
15271;SDS011;7737;51.578;7.268;2023-09-07T09:39:21;5.13;;;3.78;;
15271;SDS011;7737;51.578;7.268;2023-09-07T09:41:50;9.25;;;4.25;;
15271;SDS011;7737;51.578;7.268;2023-09-07T09:44:17;6.78;;;4.10;;
15271;SDS011;7737;51.578;7.268;2023-09-07T09:46:46;5.43;;;3.92;;
15271;SDS011;7737;51.578;7.268;2023-09-07T09:49:15;5.50;;;3.85;;
15271;SDS011;7737;51.578;7.268;2023-09-07T09:51:44;6.82;;;4.25;;
15271;SDS011;7737;51.578;7.268;2023-09-07T09:54:13;5.68;;;4.20;;
15271;SDS011;7737;51.578;7.268;2023-09-07T09:56:39;4.78;;;3.60;;
15271;SDS011;7737;51.578;7.268;2023-09-07T09:59:09;5.47;;;3.80;;
15271;SDS011;7737;51.578;7.268;2023-09-07T10:01:39;5.05;;;3.90;;
15271;SDS011;7737;51.578;7.268;2023-09-07T10:04:09;7.38;;;3.75;;
15271;SDS011;7737;51.578;7.268;2023-09-07T10:06:38;4.60;;;3.70;;
15271;SDS011;7737;51.578;7.268;2023-09-07T10:09:05;5.88;;;3.85;;
15271;SDS011;7737;51.578;7.268;2023-09-07T10:11:36;4.55;;;3.90;;
15271;SDS011;7737;51.578;7.268;2023-09-07T10:14:04;4.22;;;3.45;;
15271;SDS011;7737;51.578;7.268;2023-09-07T10:16:41;7.93;;;4.07;;
15271;SDS011;7737;51.578;7.268;2023-09-07T10:19:15;6.43;;;4.00;;
15271;SDS011;7737;51.578;7.268;2023-09-07T10:21:42;5.28;;;3.63;;
15271;SDS011;7737;51.578;7.268;2023-09-07T10:24:09;6.00;;;3.97;;
15271;SDS011;7737;51.578;7.268;2023-09-07T10:26:36;6.28;;;3.92;;
15271;SDS011;7737;51.578;7.268;2023-09-07T10:29:03;4.63;;;4.00;;
15271;SDS011;7737;51.578;7.268;2023-09-07T10:31:31;6.68;;;3.78;;
15271;SDS011;7737;51.578;7.268;2023-09-07T10:34:08;6.18;;;3.63;;
15271;SDS011;7737;51.578;7.268;2023-09-07T10:36:37;6.13;;;4.10;;
15271;SDS011;7737;51.578;7.268;2023-09-07T10:39:03;4.70;;;3.92;;
15271;SDS011;7737;51.578;7.268;2023-09-07T10:41:39;4.40;;;3.58;;
15271;SDS011;7737;51.578;7.268;2023-09-07T10:44:06;4.65;;;3.90;;
15271;SDS011;7737;51.578;7.268;2023-09-07T10:46:33;5.88;;;3.72;;
15271;SDS011;7737;51.578;7.268;2023-09-07T10:49:00;7.30;;;3.90;;
15271;SDS011;7737;51.578;7.268;2023-09-07T10:51:28;5.38;;;3.75;;
15271;SDS011;7737;51.578;7.268;2023-09-07T10:53:55;5.18;;;3.70;;
15271;SDS011;7737;51.578;7.268;2023-09-07T10:56:24;5.78;;;3.75;;
15271;SDS011;7737;51.578;7.268;2023-09-07T10:58:53;5.65;;;4.00;;
15271;SDS011;7737;51.578;7.268;2023-09-07T11:01:20;6.20;;;3.80;;
15271;SDS011;7737;51.578;7.268;2023-09-07T11:03:47;5.15;;;3.88;;
15271;SDS011;7737;51.578;7.268;2023-09-07T11:06:14;7.20;;;4.03;;
15271;SDS011;7737;51.578;7.268;2023-09-07T11:08:45;4.22;;;3.85;;
15271;SDS011;7737;51.578;7.268;2023-09-07T11:11:12;4.32;;;3.63;;
15271;SDS011;7737;51.578;7.268;2023-09-07T11:13:39;7.32;;;4.30;;
15271;SDS011;7737;51.578;7.268;2023-09-07T11:16:07;4.10;;;3.58;;
15271;SDS011;7737;51.578;7.268;2023-09-07T11:18:34;6.55;;;3.80;;
15271;SDS011;7737;51.578;7.268;2023-09-07T11:21:01;3.97;;;3.53;;
15271;SDS011;7737;51.578;7.268;2023-09-07T11:23:29;5.88;;;3.85;;
15271;SDS011;7737;51.578;7.268;2023-09-07T11:25:57;4.35;;;3.40;;
15271;SDS011;7737;51.578;7.268;2023-09-07T11:28:24;5.07;;;3.80;;
15271;SDS011;7737;51.578;7.268;2023-09-07T11:30:51;5.85;;;4.00;;
15271;SDS011;7737;51.578;7.268;2023-09-07T11:33:18;4.72;;;3.78;;
15271;SDS011;7737;51.578;7.268;2023-09-07T11:35:45;5.65;;;3.50;;
15271;SDS011;7737;51.578;7.268;2023-09-07T11:38:12;4.15;;;3.60;;
15271;SDS011;7737;51.578;7.268;2023-09-07T11:40:40;4.88;;;3.70;;
15271;SDS011;7737;51.578;7.268;2023-09-07T11:43:10;5.38;;;4.20;;
15271;SDS011;7737;51.578;7.268;2023-09-07T11:45:37;6.00;;;3.80;;
15271;SDS011;7737;51.578;7.268;2023-09-07T11:48:04;5.72;;;4.00;;
15271;SDS011;7737;51.578;7.268;2023-09-07T11:50:33;6.00;;;3.83;;
15271;SDS011;7737;51.578;7.268;2023-09-07T11:53:00;5.60;;;3.88;;
15271;SDS011;7737;51.578;7.268;2023-09-07T11:55:26;5.03;;;3.67;;
15271;SDS011;7737;51.578;7.268;2023-09-07T11:57:53;4.72;;;3.80;;
15271;SDS011;7737;51.578;7.268;2023-09-07T12:00:21;6.95;;;4.18;;
15271;SDS011;7737;51.578;7.268;2023-09-07T12:02:48;4.32;;;3.92;;
15271;SDS011;7737;51.578;7.268;2023-09-07T12:05:15;7.03;;;3.88;;
15271;SDS011;7737;51.578;7.268;2023-09-07T12:07:43;8.25;;;4.28;;
15271;SDS011;7737;51.578;7.268;2023-09-07T12:10:09;5.28;;;4.00;;
15271;SDS011;7737;51.578;7.268;2023-09-07T12:12:37;5.53;;;4.13;;
15271;SDS011;7737;51.578;7.268;2023-09-07T12:15:03;5.63;;;3.92;;
15271;SDS011;7737;51.578;7.268;2023-09-07T12:17:32;4.35;;;3.83;;
15271;SDS011;7737;51.578;7.268;2023-09-07T12:19:59;5.38;;;4.30;;
15271;SDS011;7737;51.578;7.268;2023-09-07T12:22:26;4.38;;;3.80;;
15271;SDS011;7737;51.578;7.268;2023-09-07T12:24:53;7.13;;;4.60;;
15271;SDS011;7737;51.578;7.268;2023-09-07T12:27:19;4.90;;;3.97;;
15271;SDS011;7737;51.578;7.268;2023-09-07T12:29:46;7.50;;;4.47;;
15271;SDS011;7737;51.578;7.268;2023-09-07T12:32:13;6.97;;;4.00;;
15271;SDS011;7737;51.578;7.268;2023-09-07T12:34:42;5.82;;;3.83;;
15271;SDS011;7737;51.578;7.268;2023-09-07T12:37:08;6.82;;;3.63;;
15271;SDS011;7737;51.578;7.268;2023-09-07T12:39:35;4.65;;;4.20;;
15271;SDS011;7737;51.578;7.268;2023-09-07T12:42:02;4.38;;;3.75;;
15271;SDS011;7737;51.578;7.268;2023-09-07T12:44:29;5.57;;;4.00;;
15271;SDS011;7737;51.578;7.268;2023-09-07T12:46:55;4.20;;;3.80;;
15271;SDS011;7737;51.578;7.268;2023-09-07T12:49:22;6.00;;;3.70;;
15271;SDS011;7737;51.578;7.268;2023-09-07T12:51:50;7.13;;;4.03;;
15271;SDS011;7737;51.578;7.268;2023-09-07T12:54:16;5.18;;;4.30;;
15271;SDS011;7737;51.578;7.268;2023-09-07T12:56:43;5.45;;;3.88;;
15271;SDS011;7737;51.578;7.268;2023-09-07T12:59:10;4.68;;;3.90;;
15271;SDS011;7737;51.578;7.268;2023-09-07T13:01:37;4.88;;;3.67;;
15271;SDS011;7737;51.578;7.268;2023-09-07T13:04:04;7.30;;;3.88;;
15271;SDS011;7737;51.578;7.268;2023-09-07T13:06:30;4.88;;;3.70;;
15271;SDS011;7737;51.578;7.268;2023-09-07T13:08:58;6.05;;;3.70;;
15271;SDS011;7737;51.578;7.268;2023-09-07T13:11:25;6.07;;;3.67;;
15271;SDS011;7737;51.578;7.268;2023-09-07T13:13:51;6.47;;;3.72;;
15271;SDS011;7737;51.578;7.268;2023-09-07T13:16:18;4.65;;;3.97;;
15271;SDS011;7737;51.578;7.268;2023-09-07T13:18:47;6.32;;;3.97;;
15271;SDS011;7737;51.578;7.268;2023-09-07T13:21:14;5.18;;;3.75;;
15271;SDS011;7737;51.578;7.268;2023-09-07T13:23:40;5.50;;;3.88;;
15271;SDS011;7737;51.578;7.268;2023-09-07T13:26:08;6.10;;;3.53;;
15271;SDS011;7737;51.578;7.268;2023-09-07T13:28:35;4.03;;;3.45;;
15271;SDS011;7737;51.578;7.268;2023-09-07T13:31:01;4.20;;;3.50;;
15271;SDS011;7737;51.578;7.268;2023-09-07T13:33:29;4.25;;;3.50;;
15271;SDS011;7737;51.578;7.268;2023-09-07T13:35:55;3.92;;;3.40;;
15271;SDS011;7737;51.578;7.268;2023-09-07T13:38:22;4.40;;;3.40;;
15271;SDS011;7737;51.578;7.268;2023-09-07T13:40:48;4.05;;;3.53;;
15271;SDS011;7737;51.578;7.268;2023-09-07T13:43:17;4.05;;;3.60;;
15271;SDS011;7737;51.578;7.268;2023-09-07T13:45:43;4.22;;;3.80;;
15271;SDS011;7737;51.578;7.268;2023-09-07T13:48:10;3.92;;;3.60;;
15271;SDS011;7737;51.578;7.268;2023-09-07T13:50:37;4.57;;;3.38;;
15271;SDS011;7737;51.578;7.268;2023-09-07T13:53:03;4.20;;;3.70;;
15271;SDS011;7737;51.578;7.268;2023-09-07T13:55:30;7.05;;;3.72;;
15271;SDS011;7737;51.578;7.268;2023-09-07T13:57:57;7.57;;;3.42;;
15271;SDS011;7737;51.578;7.268;2023-09-07T14:00:24;5.65;;;3.80;;
15271;SDS011;7737;51.578;7.268;2023-09-07T14:02:51;6.55;;;3.42;;
15271;SDS011;7737;51.578;7.268;2023-09-07T14:05:19;3.70;;;3.40;;
15271;SDS011;7737;51.578;7.268;2023-09-07T14:07:46;5.65;;;3.90;;
15271;SDS011;7737;51.578;7.268;2023-09-07T14:10:12;4.40;;;3.20;;
15271;SDS011;7737;51.578;7.268;2023-09-07T14:12:40;6.38;;;4.00;;
15271;SDS011;7737;51.578;7.268;2023-09-07T14:15:08;3.70;;;3.30;;
15271;SDS011;7737;51.578;7.268;2023-09-07T14:17:36;5.50;;;3.45;;
15271;SDS011;7737;51.578;7.268;2023-09-07T14:20:03;3.65;;;3.35;;
15271;SDS011;7737;51.578;7.268;2023-09-07T14:22:30;3.97;;;3.30;;
15271;SDS011;7737;51.578;7.268;2023-09-07T14:24:57;3.38;;;3.00;;
15271;SDS011;7737;51.578;7.268;2023-09-07T14:27:23;5.15;;;3.47;;
15271;SDS011;7737;51.578;7.268;2023-09-07T14:29:51;4.88;;;3.50;;
15271;SDS011;7737;51.578;7.268;2023-09-07T14:32:17;4.57;;;3.30;;
15271;SDS011;7737;51.578;7.268;2023-09-07T14:34:45;4.85;;;2.90;;
15271;SDS011;7737;51.578;7.268;2023-09-07T14:37:12;3.78;;;2.90;;
15271;SDS011;7737;51.578;7.268;2023-09-07T14:39:39;3.35;;;3.05;;
15271;SDS011;7737;51.578;7.268;2023-09-07T14:42:12;4.78;;;3.10;;
15271;SDS011;7737;51.578;7.268;2023-09-07T14:44:41;3.28;;;2.85;;
15271;SDS011;7737;51.578;7.268;2023-09-07T14:47:08;4.30;;;3.10;;
15271;SDS011;7737;51.578;7.268;2023-09-07T14:49:35;5.47;;;3.13;;